createdAt,value
2017-12-01T00:00:11.272Z,14.80
2017-12-01T00:02:40.832Z,15.85
2017-12-01T00:05:11.562Z,12.37
2017-12-01T00:07:41.336Z,13.18
2017-12-01T00:10:11.121Z,12.18
2017-12-01T00:12:40.808Z,15.27
2017-12-01T00:15:10.288Z,18.60
2017-12-01T00:17:40.053Z,15.75
2017-12-01T00:20:09.847Z,15.30
2017-12-01T00:22:39.599Z,17.85
2017-12-01T00:25:09.337Z,13.25
2017-12-01T00:27:39.104Z,18.60
2017-12-01T00:30:08.861Z,15.48
2017-12-01T00:32:38.619Z,15.60
2017-12-01T00:35:08.203Z,18.60
2017-12-01T00:37:37.972Z,16.60
2017-12-01T00:40:07.700Z,16.05
2017-12-01T00:42:37.499Z,12.25
2017-12-01T00:45:07.817Z,16.12
2017-12-01T00:47:37.643Z,19.08
2017-12-01T00:50:07.450Z,13.93
2017-12-01T00:52:37.185Z,13.02
2017-12-01T00:55:07.065Z,16.02
2017-12-01T00:57:36.826Z,17.95
2017-12-01T01:00:06.576Z,17.23
2017-12-01T01:02:36.138Z,18.23
2017-12-01T01:05:05.876Z,15.30
2017-12-01T01:07:35.726Z,15.70
2017-12-01T01:10:05.798Z,18.60
2017-12-01T01:12:35.358Z,14.60
2017-12-01T01:15:05.101Z,15.07
2017-12-01T01:17:34.896Z,16.73
2017-12-01T01:20:04.628Z,18.00
2017-12-01T01:22:34.077Z,16.75
2017-12-01T01:25:03.826Z,17.25
2017-12-01T01:27:33.643Z,18.30
2017-12-01T01:30:03.671Z,19.37
2017-12-01T01:32:33.479Z,16.52
2017-12-01T01:35:03.252Z,17.90
2017-12-01T01:37:32.898Z,17.80
2017-12-01T01:40:02.676Z,16.77
2017-12-01T01:42:32.493Z,18.05
2017-12-01T01:45:02.130Z,19.75
2017-12-01T01:47:32.103Z,17.45
2017-12-01T01:50:01.375Z,16.90
2017-12-01T01:52:30.994Z,19.25
2017-12-01T01:55:00.529Z,14.55
2017-12-01T01:57:30.021Z,16.42
2017-12-01T01:59:59.474Z,17.48
2017-12-01T02:02:28.972Z,17.80
2017-12-01T02:04:58.765Z,15.50
2017-12-01T02:07:28.086Z,16.65
2017-12-01T02:09:57.589Z,18.00
2017-12-01T02:12:27.420Z,16.08
2017-12-01T02:14:56.904Z,21.00
2017-12-01T02:17:26.745Z,15.02
2017-12-01T02:19:56.248Z,17.37
2017-12-01T02:22:25.604Z,15.30
2017-12-01T02:24:55.448Z,17.77
2017-12-01T02:27:24.851Z,18.02
2017-12-01T02:29:54.451Z,19.50
2017-12-01T02:32:23.941Z,14.57
2017-12-01T02:34:53.486Z,17.27
2017-12-01T02:37:22.807Z,15.63
2017-12-01T02:39:52.131Z,15.65
2017-12-01T02:42:21.958Z,15.75
2017-12-01T02:44:51.338Z,13.55
2017-12-01T02:47:20.896Z,16.10
2017-12-01T02:49:50.183Z,14.27
2017-12-01T02:52:19.480Z,24.17
2017-12-01T02:54:50.337Z,16.70
2017-12-01T02:57:19.690Z,17.20
2017-12-01T02:59:49.138Z,15.95
2017-12-01T03:02:18.542Z,16.10
2017-12-01T03:04:47.977Z,17.87
2017-12-01T03:07:17.259Z,16.77
2017-12-01T03:09:46.789Z,15.18
2017-12-01T03:12:16.272Z,20.65
2017-12-01T03:14:45.535Z,17.00
2017-12-01T03:17:15.042Z,20.00
2017-12-01T03:19:44.462Z,22.77
2017-12-01T03:22:13.906Z,18.37
2017-12-01T03:24:43.397Z,17.02
2017-12-01T03:27:12.931Z,20.62
2017-12-01T03:29:42.359Z,18.23
2017-12-01T03:32:11.631Z,18.77
2017-12-01T03:34:40.913Z,22.90
2017-12-01T03:37:10.370Z,21.45
2017-12-01T03:39:39.758Z,19.27
2017-12-01T03:42:09.123Z,21.62
2017-12-01T03:44:38.629Z,22.48
2017-12-01T03:47:08.061Z,23.38
2017-12-01T03:49:37.536Z,24.33
2017-12-01T03:52:06.933Z,24.70
2017-12-01T03:54:36.548Z,20.88
2017-12-01T03:57:06.010Z,24.48
2017-12-01T03:59:35.935Z,27.62
2017-12-01T04:02:05.307Z,26.60
2017-12-01T04:04:34.804Z,23.35
2017-12-01T04:07:03.865Z,26.30
2017-12-01T04:09:33.198Z,24.30
2017-12-01T04:12:02.514Z,27.90
2017-12-01T04:14:31.948Z,27.98
2017-12-01T04:17:01.299Z,25.10
2017-12-01T04:19:31.063Z,33.50
2017-12-01T04:22:00.401Z,27.77
2017-12-01T04:24:29.865Z,28.40
2017-12-01T04:26:59.305Z,31.30
2017-12-01T04:29:28.781Z,27.00
2017-12-01T04:31:58.044Z,30.60
2017-12-01T04:34:27.345Z,29.05
2017-12-01T04:36:56.681Z,28.45
2017-12-01T04:39:26.191Z,25.30
2017-12-01T04:41:56.302Z,22.75
2017-12-01T04:44:25.752Z,22.48
2017-12-01T04:46:55.185Z,28.35
2017-12-01T04:49:24.643Z,26.20
2017-12-01T04:51:53.987Z,27.15
2017-12-01T04:54:23.246Z,24.02
2017-12-01T04:56:52.618Z,20.58
2017-12-01T04:59:22.093Z,25.10
2017-12-01T05:01:51.472Z,25.95
2017-12-01T05:04:20.981Z,25.60
2017-12-01T05:06:50.610Z,31.50
2017-12-01T05:09:20.050Z,32.80
2017-12-01T05:11:49.341Z,32.38
2017-12-01T05:14:18.749Z,28.20
2017-12-01T05:16:48.244Z,26.65
2017-12-01T05:19:17.782Z,30.70
2017-12-01T05:21:47.096Z,31.95
2017-12-01T05:24:16.575Z,34.67
2017-12-01T05:26:45.899Z,33.95
2017-12-01T05:29:15.308Z,30.30
2017-12-01T05:31:44.933Z,33.63
2017-12-01T05:34:14.360Z,26.80
2017-12-01T05:36:43.597Z,28.45
2017-12-01T05:39:14.624Z,31.75
2017-12-01T05:41:44.561Z,28.98
2017-12-01T05:44:14.005Z,29.40
2017-12-01T05:46:43.467Z,28.87
2017-12-01T05:49:12.659Z,30.75
2017-12-01T05:51:42.360Z,27.90
2017-12-01T05:54:11.890Z,30.02
2017-12-01T05:56:41.363Z,31.35
2017-12-01T05:59:10.849Z,24.42
2017-12-01T06:01:40.400Z,30.88
2017-12-01T06:07:36.646Z,28.00
2017-12-01T06:10:06.762Z,28.67
2017-12-01T06:12:36.299Z,30.27
2017-12-01T06:15:05.880Z,33.65
2017-12-01T06:17:35.282Z,29.10
2017-12-01T06:20:05.114Z,30.95
2017-12-01T06:22:34.674Z,42.40
2017-12-01T06:25:04.518Z,42.55
2017-12-01T06:27:34.263Z,36.15
2017-12-01T06:30:04.520Z,33.88
2017-12-01T06:32:35.116Z,29.33
2017-12-01T06:45:39.806Z,38.05
2017-12-01T06:48:10.944Z,40.08
2017-12-01T06:50:40.492Z,36.47
2017-12-01T06:53:10.039Z,37.22
2017-12-01T06:55:39.821Z,40.05
2017-12-01T06:58:09.407Z,38.42
2017-12-01T07:00:39.230Z,42.80
2017-12-01T07:03:08.974Z,37.72
2017-12-01T07:05:38.481Z,39.05
2017-12-01T07:08:08.110Z,37.83
2017-12-01T07:10:37.954Z,36.15
2017-12-01T07:13:07.864Z,31.55
2017-12-01T07:15:37.779Z,31.55
2017-12-01T07:18:07.691Z,32.22
2017-12-01T07:20:37.681Z,29.75
2017-12-01T07:23:07.595Z,28.80
2017-12-01T07:25:37.569Z,22.87
2017-12-01T07:28:08.522Z,21.33
2017-12-01T07:30:38.825Z,19.30
2017-12-01T07:33:08.365Z,21.35
2017-12-01T07:35:38.222Z,22.52
2017-12-01T07:38:07.972Z,26.08
2017-12-01T07:40:37.904Z,27.98
2017-12-01T07:43:09.284Z,28.92
2017-12-01T07:45:39.742Z,28.25
2017-12-01T07:48:09.469Z,26.17
2017-12-01T07:50:39.203Z,26.62
2017-12-01T07:53:08.873Z,27.33
2017-12-01T07:55:38.874Z,25.25
2017-12-01T07:58:08.942Z,25.40
2017-12-01T08:00:39.714Z,25.40
2017-12-01T08:03:09.815Z,25.67
2017-12-01T08:05:39.629Z,22.05
2017-12-01T08:08:09.485Z,28.35
2017-12-01T08:10:39.523Z,26.10
2017-12-01T08:13:09.137Z,26.67
2017-12-01T08:15:50.573Z,23.33
2017-12-01T08:22:04.077Z,23.73
2017-12-01T08:24:45.352Z,21.08
2017-12-01T08:27:14.865Z,20.65
2017-12-01T08:29:44.571Z,18.37
2017-12-01T08:32:14.282Z,21.95
2017-12-01T08:34:44.122Z,20.05
2017-12-01T08:37:13.991Z,21.92
2017-12-01T08:39:43.778Z,20.48
2017-12-01T08:42:13.492Z,22.65
2017-12-01T08:44:43.241Z,22.08
2017-12-01T08:47:13.064Z,24.30
2017-12-01T08:49:42.770Z,22.23
2017-12-01T08:52:12.560Z,20.92
2017-12-01T08:54:42.372Z,25.33
2017-12-01T08:57:12.216Z,25.67
2017-12-01T08:59:42.127Z,21.35
2017-12-01T09:02:12.381Z,21.55
2017-12-01T09:04:42.135Z,21.70
2017-12-01T09:07:11.892Z,19.20
2017-12-01T09:09:41.759Z,22.58
2017-12-01T09:12:11.583Z,20.52
2017-12-01T09:14:41.487Z,22.30
2017-12-01T09:17:11.201Z,24.98
2017-12-01T09:19:40.894Z,20.25
2017-12-01T09:22:10.907Z,22.40
2017-12-01T09:24:40.568Z,21.37
2017-12-01T09:27:10.508Z,21.55
2017-12-01T09:29:41.140Z,20.77
2017-12-01T09:32:11.384Z,21.95
2017-12-01T09:34:42.197Z,22.50
2017-12-01T09:37:12.155Z,21.20
2017-12-01T09:39:42.076Z,20.10
2017-12-01T09:42:11.637Z,23.27
2017-12-01T09:44:40.870Z,28.00
2017-12-01T09:47:10.452Z,23.60
2017-12-01T09:49:40.340Z,21.17
2017-12-01T09:52:10.120Z,22.50
2017-12-01T09:54:39.980Z,21.60
2017-12-01T09:57:09.738Z,24.02
2017-12-01T09:59:39.526Z,23.00
2017-12-01T10:02:09.363Z,19.85
2017-12-01T10:04:39.264Z,20.42
2017-12-01T10:07:09.086Z,20.48
2017-12-01T10:09:38.948Z,21.37
2017-12-01T10:12:08.738Z,21.52
2017-12-01T10:14:38.629Z,20.70
2017-12-01T10:17:08.639Z,18.73
2017-12-01T10:19:38.818Z,17.58
2017-12-01T10:22:08.628Z,17.92
2017-12-01T10:24:38.791Z,21.23
2017-12-01T10:32:27.794Z,19.67
2017-12-01T10:34:59.544Z,19.30
2017-12-01T10:37:31.555Z,18.13
2017-12-01T10:40:02.283Z,16.97
2017-12-01T10:42:32.136Z,15.93
2017-12-01T10:45:01.743Z,21.20
2017-12-01T10:47:31.422Z,20.13
2017-12-01T10:52:35.866Z,17.53
2017-12-01T10:55:06.263Z,20.63
2017-12-01T10:57:36.056Z,18.00
2017-12-01T11:00:07.301Z,16.73
2017-12-01T11:02:36.711Z,18.17
2017-12-01T11:05:06.760Z,18.50
2017-12-01T11:07:40.231Z,15.60
2017-12-01T11:10:10.157Z,16.53
2017-12-01T11:12:39.893Z,16.43
2017-12-01T11:15:09.341Z,15.87
2017-12-01T11:17:40.393Z,15.63
2017-12-01T11:20:10.683Z,15.70
2017-12-01T11:22:40.326Z,15.60
2017-12-01T11:25:09.821Z,21.23
2017-12-01T11:27:39.424Z,16.07
2017-12-01T11:30:08.931Z,18.20
2017-12-01T11:32:38.521Z,17.97
2017-12-01T11:35:09.243Z,17.27
2017-12-01T11:37:39.331Z,15.23
2017-12-01T11:40:09.019Z,15.10
2017-12-01T11:42:38.593Z,16.00
2017-12-01T11:45:08.234Z,13.10
2017-12-01T11:47:38.010Z,15.73
2017-12-01T11:50:07.473Z,14.97
2017-12-01T11:52:37.490Z,15.13
2017-12-01T11:55:07.091Z,13.33
2017-12-01T11:57:37.344Z,15.23
2017-12-01T12:00:06.849Z,13.77
2017-12-01T12:02:36.315Z,13.97
2017-12-01T12:05:05.676Z,15.77
2017-12-01T12:07:35.280Z,13.77
2017-12-01T12:10:04.867Z,14.23
2017-12-01T12:12:35.257Z,12.50
2017-12-01T12:15:04.671Z,12.93
2017-12-01T12:17:33.886Z,13.53
2017-12-01T12:20:02.961Z,14.03
2017-12-01T12:22:33.371Z,12.50
2017-12-01T12:25:02.454Z,12.60
2017-12-01T12:35:04.067Z,12.30
2017-12-01T12:40:15.383Z,12.93
2017-12-01T12:42:44.611Z,12.73
2017-12-01T12:45:14.324Z,11.43
2017-12-01T12:47:45.030Z,11.17
2017-12-01T12:50:14.200Z,13.87
2017-12-01T12:52:45.002Z,13.30
2017-12-01T12:55:14.510Z,13.47
2017-12-01T12:57:44.062Z,14.40
2017-12-01T13:00:13.310Z,10.40
2017-12-01T13:02:42.245Z,11.40
2017-12-01T13:05:11.665Z,11.13
2017-12-01T13:07:41.154Z,11.70
2017-12-01T13:10:10.993Z,10.57
2017-12-01T13:12:40.101Z,12.60
2017-12-01T13:15:09.257Z,10.93
2017-12-01T13:17:38.378Z,10.50
2017-12-01T13:20:07.624Z,11.73
2017-12-01T13:22:36.804Z,11.30
2017-12-01T13:25:06.010Z,15.17
2017-12-01T13:27:35.189Z,10.90
2017-12-01T13:30:04.289Z,12.37
2017-12-01T13:32:34.838Z,11.17
2017-12-01T13:35:04.120Z,9.80
2017-12-01T13:37:33.552Z,10.13
2017-12-01T13:40:02.662Z,10.43
2017-12-01T13:42:32.529Z,10.63
2017-12-01T13:45:01.658Z,8.17
2017-12-01T13:47:31.150Z,8.80
2017-12-01T13:50:00.538Z,10.30
2017-12-01T13:52:29.954Z,10.97
2017-12-01T13:54:59.060Z,10.37
2017-12-01T13:57:28.169Z,11.83
2017-12-01T13:59:57.502Z,10.83
2017-12-01T14:02:26.750Z,15.83
2017-12-01T14:04:56.463Z,16.40
2017-12-01T14:07:26.830Z,16.53
2017-12-01T14:09:56.980Z,15.70
2017-12-01T14:12:26.442Z,14.43
2017-12-01T14:15:05.779Z,16.23
2017-12-01T14:17:40.917Z,17.97
2017-12-01T14:20:11.408Z,27.83
2017-12-01T14:22:40.847Z,17.50
2017-12-01T14:25:19.620Z,17.37
2017-12-01T14:27:51.500Z,17.47
2017-12-01T14:30:20.938Z,17.67
2017-12-01T14:32:50.702Z,22.02
2017-12-01T14:35:20.437Z,19.60
2017-12-01T14:37:50.006Z,16.33
2017-12-01T14:40:19.721Z,26.10
2017-12-01T14:42:49.556Z,23.55
2017-12-01T14:45:19.287Z,21.40
2017-12-01T14:47:49.067Z,26.87
2017-12-01T14:50:18.785Z,27.85
2017-12-01T14:52:48.518Z,22.42
2017-12-01T14:55:18.239Z,23.98
2017-12-01T14:57:47.968Z,28.60
2017-12-01T15:00:17.729Z,28.55
2017-12-01T15:02:48.073Z,29.27
2017-12-01T15:05:18.166Z,33.13
2017-12-01T15:07:47.903Z,32.75
2017-12-01T15:10:17.617Z,29.25
2017-12-01T15:12:47.341Z,32.42
2017-12-01T15:15:17.453Z,30.83
2017-12-01T15:17:47.186Z,30.80
2017-12-01T15:20:17.218Z,32.85
2017-12-01T15:22:46.966Z,30.02
2017-12-01T15:25:16.689Z,30.45
2017-12-01T15:27:47.117Z,28.98
2017-12-01T15:30:16.858Z,25.85
2017-12-01T15:32:46.564Z,24.08
2017-12-01T15:35:16.287Z,22.92
2017-12-01T15:37:45.864Z,24.17
2017-12-01T15:40:15.266Z,26.85
2017-12-01T15:42:44.473Z,22.87
2017-12-01T15:45:14.270Z,24.25
2017-12-01T15:47:43.798Z,28.25
2017-12-01T15:50:12.997Z,24.60
2017-12-01T15:52:42.546Z,28.33
2017-12-01T15:55:12.102Z,28.40
2017-12-01T15:57:41.653Z,27.73
2017-12-01T16:00:11.229Z,32.05
2017-12-01T16:02:40.437Z,28.20
2017-12-01T16:05:09.721Z,31.30
2017-12-01T16:07:39.603Z,31.65
2017-12-01T16:10:08.829Z,35.20
2017-12-01T16:12:38.620Z,29.77
2017-12-01T16:15:08.080Z,28.30
2017-12-01T16:17:37.314Z,33.67
2017-12-01T16:20:06.713Z,31.85
2017-12-01T16:22:36.466Z,32.08
2017-12-01T16:25:05.660Z,32.88
2017-12-01T16:27:35.055Z,29.45
2017-12-01T16:30:04.814Z,29.67
2017-12-01T16:32:42.299Z,26.98
2017-12-01T16:35:04.494Z,25.75
2017-12-01T16:37:33.940Z,26.30
2017-12-01T16:40:03.429Z,27.40
2017-12-01T16:42:33.208Z,30.27
2017-12-01T16:45:02.676Z,28.27
2017-12-01T16:47:32.457Z,29.73
2017-12-01T16:50:01.896Z,30.67
2017-12-01T16:52:31.345Z,26.80
2017-12-01T16:55:00.782Z,28.48
2017-12-01T16:57:30.249Z,32.83
2017-12-01T17:00:00.683Z,26.77
2017-12-01T17:02:29.939Z,28.35
2017-12-01T17:05:03.839Z,30.80
2017-12-01T17:07:33.727Z,33.08
2017-12-01T17:10:03.748Z,34.05
2017-12-01T17:12:32.986Z,29.63
2017-12-01T17:15:02.453Z,30.40
2017-12-01T17:17:31.837Z,30.70
2017-12-01T17:20:01.541Z,26.83
2017-12-01T17:22:30.928Z,35.90
2017-12-01T17:25:00.184Z,30.27
2017-12-01T17:27:29.584Z,36.50
2017-12-01T17:29:59.007Z,38.65
2017-12-01T17:32:28.744Z,24.75
2017-12-01T17:34:59.068Z,23.27
2017-12-01T17:37:28.456Z,25.80
2017-12-01T17:39:57.881Z,26.48
2017-12-01T17:42:27.323Z,24.90
2017-12-01T17:44:56.960Z,22.95
2017-12-01T17:47:26.409Z,21.58
2017-12-01T17:49:55.799Z,26.85
2017-12-01T17:52:25.342Z,27.42
2017-12-01T17:54:54.899Z,29.25
2017-12-01T17:57:24.344Z,26.25
2017-12-01T17:59:53.835Z,26.27
2017-12-01T18:02:23.348Z,26.10
2017-12-01T18:04:52.761Z,29.12
2017-12-01T18:07:22.247Z,29.63
2017-12-01T18:09:51.867Z,28.20
2017-12-01T18:12:22.041Z,29.70
2017-12-01T18:14:51.644Z,28.95
2017-12-01T18:17:21.245Z,30.08
2017-12-01T18:19:50.635Z,30.65
2017-12-01T18:22:20.423Z,36.92
2017-12-01T18:24:49.828Z,32.45
2017-12-01T18:27:23.207Z,34.65
2017-12-01T18:29:52.602Z,32.60
2017-12-01T18:32:21.984Z,34.83
2017-12-01T18:34:51.445Z,30.58
2017-12-01T18:37:20.823Z,34.53
2017-12-01T18:39:50.263Z,42.30
2017-12-01T18:42:19.690Z,32.78
2017-12-01T18:44:49.418Z,33.55
2017-12-01T18:47:19.018Z,36.83
2017-12-01T18:49:48.416Z,38.65
2017-12-01T18:52:18.238Z,37.00
2017-12-01T18:54:47.531Z,27.52
2017-12-01T18:57:16.892Z,27.92
2017-12-01T18:59:46.469Z,26.33
2017-12-01T19:02:15.869Z,25.67
2017-12-01T19:04:45.476Z,23.60
2017-12-01T19:07:15.224Z,20.60
2017-12-01T19:09:44.598Z,26.30
2017-12-01T19:12:13.987Z,22.35
2017-12-01T19:14:44.080Z,21.52
2017-12-01T19:17:13.621Z,26.23
2017-12-01T19:19:43.324Z,23.70
2017-12-01T19:22:12.716Z,24.35
2017-12-01T19:24:41.926Z,26.60
2017-12-01T19:27:11.156Z,27.85
2017-12-01T19:29:40.748Z,23.77
2017-12-01T19:32:09.963Z,27.77
2017-12-01T19:34:39.798Z,24.15
2017-12-01T19:37:09.180Z,24.75
2017-12-01T19:39:38.650Z,24.10
2017-12-01T19:42:08.369Z,23.67
2017-12-01T19:44:37.766Z,24.95
2017-12-01T19:47:08.767Z,19.25
2017-12-01T19:49:38.683Z,18.55
2017-12-01T19:52:08.399Z,21.35
2017-12-01T19:54:37.791Z,20.10
2017-12-01T19:57:07.553Z,19.73
2017-12-01T19:59:36.971Z,19.05
2017-12-01T20:02:06.397Z,17.02
2017-12-01T20:04:36.256Z,21.40
2017-12-01T20:07:05.667Z,26.83
2017-12-01T20:09:35.132Z,17.75
2017-12-01T20:12:04.927Z,23.60
2017-12-01T20:14:34.696Z,21.80
2017-12-01T20:17:04.406Z,23.40
2017-12-01T20:19:34.140Z,23.77
2017-12-01T20:22:03.680Z,23.55
2017-12-01T20:24:32.952Z,26.25
2017-12-01T20:27:02.370Z,24.60
2017-12-01T20:29:31.764Z,21.20
2017-12-01T20:32:01.211Z,22.25
2017-12-01T20:34:30.981Z,30.17
2017-12-01T20:37:00.373Z,29.33
2017-12-01T20:39:29.794Z,26.02
2017-12-01T20:41:59.397Z,27.55
2017-12-01T20:44:29.116Z,26.25
2017-12-01T20:46:58.542Z,32.35
2017-12-01T20:49:27.937Z,30.77
2017-12-01T20:51:57.350Z,28.98
2017-12-01T20:54:27.440Z,34.28
2017-12-01T20:56:56.847Z,28.90
2017-12-01T20:59:26.592Z,26.27
2017-12-01T21:01:55.831Z,29.50
2017-12-01T21:04:25.290Z,21.62
2017-12-01T21:06:54.674Z,23.27
2017-12-01T21:09:24.117Z,30.80
2017-12-01T21:11:53.860Z,34.50
2017-12-01T21:14:23.294Z,34.42
2017-12-01T21:16:56.697Z,31.05
2017-12-01T21:19:26.290Z,30.52
2017-12-01T21:21:55.840Z,29.42
2017-12-01T21:24:25.669Z,28.05
2017-12-01T21:26:55.650Z,26.25
2017-12-01T21:29:25.121Z,28.60
2017-12-01T21:31:57.105Z,27.25
2017-12-01T21:34:26.765Z,32.03
2017-12-01T21:36:57.761Z,27.55
2017-12-01T21:39:28.238Z,19.08
2017-12-01T21:41:58.797Z,24.05
2017-12-01T21:44:28.628Z,21.30
2017-12-01T21:49:34.522Z,17.83
2017-12-01T21:52:04.628Z,19.10
2017-12-01T21:54:35.397Z,20.62
2017-12-01T21:57:09.941Z,18.70
2017-12-01T21:59:39.845Z,19.70
2017-12-01T22:02:10.538Z,25.85
2017-12-01T22:04:40.679Z,19.80
2017-12-01T22:07:10.321Z,22.77
2017-12-01T22:09:40.237Z,18.42
2017-12-01T22:12:10.359Z,21.52
2017-12-01T22:14:40.048Z,21.25
2017-12-01T22:17:09.778Z,20.55
2017-12-01T22:19:40.188Z,23.42
2017-12-01T22:22:09.922Z,23.52
2017-12-01T22:24:39.731Z,24.15
2017-12-01T22:27:13.198Z,25.62
2017-12-01T22:29:44.102Z,23.58
2017-12-01T22:39:34.597Z,23.05
2017-12-01T22:42:05.003Z,25.80
2017-12-01T22:44:34.883Z,23.10
2017-12-01T22:47:04.844Z,18.77
2017-12-01T22:49:34.638Z,30.02
2017-12-01T22:52:04.854Z,23.23
2017-12-01T22:54:34.737Z,22.33
2017-12-01T22:57:04.613Z,22.02
2017-12-01T22:59:34.546Z,25.12
2017-12-01T23:02:04.587Z,23.08
2017-12-01T23:04:34.706Z,23.67
2017-12-01T23:07:04.571Z,23.00
2017-12-01T23:09:34.481Z,21.42
2017-12-01T23:12:06.340Z,20.45
2017-12-01T23:14:36.277Z,21.35
2017-12-01T23:17:06.172Z,21.60
2017-12-01T23:19:36.210Z,19.60
2017-12-01T23:22:06.054Z,22.95
2017-12-01T23:24:37.690Z,22.48
2017-12-01T23:27:07.689Z,20.42
2017-12-01T23:29:43.951Z,21.55
2017-12-01T23:32:14.661Z,23.48
2017-12-01T23:34:44.558Z,21.62
2017-12-01T23:37:14.479Z,23.60
2017-12-01T23:39:44.843Z,23.27
2017-12-01T23:42:14.731Z,22.30
2017-12-01T23:44:44.649Z,24.23
2017-12-01T23:47:14.570Z,23.98
2017-12-01T23:49:44.480Z,23.52
2017-12-01T23:52:14.271Z,24.42
2017-12-01T23:54:44.134Z,22.45
2017-12-01T23:57:13.598Z,25.25
2017-12-01T23:59:43.416Z,27.15
